createdAt,value
2022-09-18T00:01:15.312Z,69.30
2022-09-18T00:03:48.991Z,69.26
2022-09-18T00:06:24.131Z,69.33
2022-09-18T00:08:59.769Z,69.42
2022-09-18T00:11:36.793Z,69.27
2022-09-18T00:14:11.964Z,69.39
2022-09-18T00:16:45.693Z,69.36
2022-09-18T00:19:19.911Z,69.40
2022-09-18T00:21:54.046Z,69.39
2022-09-18T00:24:27.270Z,69.51
2022-09-18T00:27:00.501Z,69.62
2022-09-18T00:29:34.082Z,69.67
2022-09-18T00:32:07.567Z,69.86
2022-09-18T00:34:41.921Z,69.87
2022-09-18T00:37:15.431Z,69.78
2022-09-18T00:39:48.567Z,69.89
2022-09-18T00:42:22.843Z,69.85
2022-09-18T00:44:55.953Z,69.85
2022-09-18T00:47:32.013Z,70.02
2022-09-18T00:50:11.970Z,69.85
2022-09-18T00:52:55.848Z,69.95
2022-09-18T00:55:33.681Z,70.08
2022-09-18T00:58:08.391Z,70.05
2022-09-18T01:00:41.721Z,70.11
2022-09-18T01:03:14.990Z,70.16
2022-09-18T01:06:04.876Z,70.06
2022-09-18T01:08:53.480Z,70.16
2022-09-18T01:11:38.241Z,70.21
2022-09-18T01:14:30.598Z,70.24
2022-09-18T01:17:15.831Z,70.32
2022-09-18T01:20:12.889Z,70.22
2022-09-18T01:23:01.649Z,70.16
2022-09-18T01:25:48.759Z,70.32
2022-09-18T01:28:27.842Z,70.19
2022-09-18T01:31:06.287Z,70.31
2022-09-18T01:33:45.450Z,70.34
2022-09-18T01:36:22.681Z,70.36
2022-09-18T01:39:01.240Z,70.28
2022-09-18T01:41:33.269Z,70.32
2022-09-18T01:44:10.955Z,70.26
2022-09-18T01:46:46.639Z,70.36
2022-09-18T01:49:26.038Z,70.29
2022-09-18T01:52:04.633Z,70.48
2022-09-18T01:54:42.175Z,70.56
2022-09-18T01:57:23.069Z,70.54
2022-09-18T02:00:00.134Z,70.64
2022-09-18T02:02:39.716Z,70.76
2022-09-18T02:05:18.179Z,70.69
2022-09-18T02:07:58.648Z,70.64
2022-09-18T02:10:37.071Z,70.67
2022-09-18T02:13:13.730Z,70.71
2022-09-18T02:15:49.543Z,70.74
2022-09-18T02:18:32.582Z,70.75
2022-09-18T02:21:13.340Z,70.73
2022-09-18T02:23:49.149Z,70.76
2022-09-18T02:26:23.582Z,70.65
2022-09-18T02:28:58.217Z,70.65
2022-09-18T02:31:32.016Z,70.68
2022-09-18T02:34:09.212Z,70.85
2022-09-18T02:37:10.590Z,70.81
2022-09-18T02:39:56.627Z,70.96
2022-09-18T02:42:41.722Z,71.03
2022-09-18T02:45:25.323Z,71.07
2022-09-18T02:48:13.088Z,71.18
2022-09-18T02:50:59.092Z,71.27
2022-09-18T02:53:36.965Z,71.39
2022-09-18T02:56:15.952Z,71.23
2022-09-18T02:58:53.764Z,71.37
2022-09-18T03:01:29.309Z,71.46
2022-09-18T03:04:08.110Z,71.41
2022-09-18T03:06:52.797Z,71.51
2022-09-18T03:09:26.585Z,71.42
2022-09-18T03:12:00.032Z,71.61
2022-09-18T03:14:33.167Z,71.51
2022-09-18T03:17:09.166Z,71.50
2022-09-18T03:19:44.959Z,71.47
2022-09-18T03:22:19.572Z,71.47
2022-09-18T03:24:54.439Z,71.40
2022-09-18T03:27:28.032Z,71.42
2022-09-18T03:30:01.453Z,71.58
2022-09-18T03:32:38.037Z,71.57
2022-09-18T03:35:14.358Z,71.47
2022-09-18T03:37:48.103Z,71.55
2022-09-18T03:40:25.495Z,71.52
2022-09-18T03:42:59.013Z,71.52
2022-09-18T03:45:32.485Z,71.61
2022-09-18T03:48:07.528Z,71.63
2022-09-18T03:50:41.519Z,71.73
2022-09-18T03:53:14.961Z,71.55
2022-09-18T03:56:02.474Z,71.75
2022-09-18T03:58:54.873Z,71.81
2022-09-18T04:01:43.346Z,71.68
2022-09-18T04:04:35.921Z,71.58
2022-09-18T04:07:28.057Z,71.68
2022-09-18T04:10:22.976Z,71.65
2022-09-18T04:12:56.168Z,71.68
2022-09-18T04:15:32.428Z,71.76
2022-09-18T04:18:05.584Z,71.73
2022-09-18T04:20:39.100Z,71.57
2022-09-18T04:23:14.914Z,71.69
2022-09-18T04:25:48.245Z,71.72
2022-09-18T04:28:21.731Z,71.77
2022-09-18T04:30:55.031Z,71.71
2022-09-18T04:33:28.021Z,71.57
2022-09-18T04:36:01.336Z,71.69
2022-09-18T04:38:34.915Z,71.63
2022-09-18T04:41:08.924Z,71.64
2022-09-18T04:43:42.355Z,71.54
2022-09-18T04:46:16.063Z,71.48
2022-09-18T04:48:51.760Z,71.55
2022-09-18T04:51:26.758Z,71.54
2022-09-18T04:54:00.241Z,71.52
2022-09-18T04:56:33.217Z,71.65
2022-09-18T04:59:06.714Z,71.62
2022-09-18T05:01:40.319Z,71.67
2022-09-18T05:04:17.814Z,71.61
2022-09-18T05:06:58.158Z,71.76
2022-09-18T05:09:31.320Z,71.58
2022-09-18T05:12:04.961Z,71.73
2022-09-18T05:14:39.426Z,71.59
2022-09-18T05:17:14.209Z,71.70
2022-09-18T05:19:58.080Z,71.60
2022-09-18T05:22:35.925Z,71.61
2022-09-18T05:25:10.604Z,71.57
2022-09-18T05:27:43.725Z,71.58
2022-09-18T05:30:17.853Z,71.54
2022-09-18T05:33:00.225Z,71.33
2022-09-18T05:35:36.433Z,71.35
2022-09-18T05:38:11.875Z,71.53
2022-09-18T05:40:49.374Z,71.51
2022-09-18T05:43:22.747Z,71.52
2022-09-18T05:45:56.731Z,71.52
2022-09-18T05:48:37.899Z,71.45
2022-09-18T05:51:11.044Z,71.46
2022-09-18T05:53:48.888Z,71.55
2022-09-18T05:56:25.681Z,71.42
2022-09-18T05:59:00.684Z,71.20
2022-09-18T06:01:36.248Z,71.09
2022-09-18T06:04:18.096Z,71.11
2022-09-18T06:07:11.980Z,70.86
2022-09-18T06:09:47.799Z,70.66
2022-09-18T06:12:21.134Z,70.66
2022-09-18T06:14:55.840Z,70.71
2022-09-18T06:17:31.449Z,70.68
2022-09-18T06:20:08.997Z,70.74
2022-09-18T06:22:42.250Z,70.70
2022-09-18T06:25:18.632Z,70.25
2022-09-18T06:27:54.943Z,70.04
2022-09-18T06:30:33.026Z,70.24
2022-09-18T06:33:07.562Z,70.45
2022-09-18T06:35:44.594Z,70.52
2022-09-18T06:38:18.727Z,70.48
2022-09-18T06:40:56.237Z,70.64
2022-09-18T06:43:45.639Z,70.40
2022-09-18T06:46:42.368Z,70.25
2022-09-18T06:49:22.639Z,70.35
2022-09-18T06:51:56.022Z,70.14
2022-09-18T06:54:29.728Z,70.40
2022-09-18T06:57:02.941Z,70.24
2022-09-18T06:59:39.052Z,70.26
2022-09-18T07:02:19.655Z,70.07
2022-09-18T07:05:03.950Z,69.91
2022-09-18T07:07:37.363Z,70.05
2022-09-18T07:10:12.864Z,70.17
2022-09-18T07:12:50.323Z,70.18
2022-09-18T07:15:24.625Z,70.17
2022-09-18T07:17:59.550Z,70.02
2022-09-18T07:20:32.996Z,69.97
2022-09-18T07:23:06.806Z,69.93
2022-09-18T07:25:47.794Z,69.98
2022-09-18T07:28:21.307Z,70.08
2022-09-18T07:31:07.861Z,70.25
2022-09-18T07:33:40.844Z,70.17
2022-09-18T07:36:14.836Z,70.39
2022-09-18T07:38:55.680Z,70.79
2022-09-18T07:41:32.618Z,70.95
2022-09-18T07:44:06.959Z,71.31
2022-09-18T07:46:55.664Z,71.53
2022-09-18T07:49:29.767Z,71.73
2022-09-18T07:52:03.770Z,71.75
2022-09-18T07:54:38.408Z,71.77
2022-09-18T07:57:17.088Z,71.88
2022-09-18T08:00:15.483Z,71.87
2022-09-18T08:02:48.846Z,71.96
2022-09-18T08:05:42.544Z,71.92
2022-09-18T08:08:26.372Z,71.68
2022-09-18T08:11:36.102Z,71.81
2022-09-18T08:14:41.888Z,72.03
2022-09-18T08:17:50.596Z,72.09
2022-09-18T08:20:44.965Z,72.22
2022-09-18T08:23:41.243Z,72.14
2022-09-18T08:26:20.048Z,71.98
2022-09-18T08:28:59.028Z,71.92
2022-09-18T08:31:32.891Z,71.98
2022-09-18T08:34:27.386Z,72.07
2022-09-18T08:37:00.923Z,71.98
2022-09-18T08:39:52.922Z,71.77
2022-09-18T08:43:09.951Z,72.17
2022-09-18T08:45:59.083Z,72.19
2022-09-18T08:48:36.492Z,72.19
2022-09-18T08:51:24.768Z,72.19
2022-09-18T08:54:23.128Z,72.16
2022-09-18T08:57:25.643Z,71.86
2022-09-18T09:00:24.076Z,71.97
2022-09-18T09:03:20.123Z,72.10
2022-09-18T09:05:58.918Z,71.82
2022-09-18T09:08:59.254Z,71.84
2022-09-18T09:11:42.424Z,71.80
2022-09-18T09:14:53.193Z,71.54
2022-09-18T09:17:43.306Z,71.42
2022-09-18T09:20:25.038Z,71.17
2022-09-18T09:23:08.347Z,70.46
2022-09-18T09:26:07.936Z,70.19
2022-09-18T09:29:10.875Z,69.95
2022-09-18T09:31:52.159Z,70.09
2022-09-18T09:35:02.251Z,69.21
2022-09-18T09:37:45.797Z,68.96
2022-09-18T09:40:32.930Z,69.00
2022-09-18T09:43:18.519Z,68.63
2022-09-18T09:45:53.949Z,68.03
2022-09-18T09:48:37.577Z,68.13
2022-09-18T09:51:19.359Z,67.68
2022-09-18T09:53:56.247Z,67.19
2022-09-18T09:56:34.717Z,66.99
2022-09-18T09:59:20.004Z,66.31
2022-09-18T10:02:34.722Z,66.30
2022-09-18T10:05:28.209Z,66.48
2022-09-18T10:08:08.056Z,66.06
2022-09-18T10:11:00.978Z,65.91
2022-09-18T10:13:57.208Z,65.76
2022-09-18T10:16:36.861Z,65.76
2022-09-18T10:19:20.108Z,65.70
2022-09-18T10:21:55.890Z,65.32
2022-09-18T10:24:35.627Z,64.85
2022-09-18T10:27:14.208Z,64.81
2022-09-18T10:29:48.398Z,65.03
2022-09-18T10:32:41.850Z,64.84
2022-09-18T10:35:46.401Z,64.64
2022-09-18T10:38:38.069Z,64.57
2022-09-18T10:41:40.804Z,64.92
2022-09-18T10:44:32.053Z,64.67
2022-09-18T10:47:13.489Z,64.43
2022-09-18T10:49:55.335Z,64.85
2022-09-18T10:52:36.268Z,64.13
2022-09-18T10:55:26.572Z,63.93
2022-09-18T10:58:17.154Z,64.05
2022-09-18T11:01:01.703Z,63.63
2022-09-18T11:03:42.313Z,63.66
2022-09-18T11:06:24.220Z,63.60
2022-09-18T11:09:01.164Z,63.27
2022-09-18T11:11:36.385Z,63.46
2022-09-18T11:14:26.460Z,63.70
2022-09-18T11:17:06.344Z,63.49
2022-09-18T11:19:43.678Z,63.42
2022-09-18T11:22:42.019Z,63.15
2022-09-18T11:25:24.831Z,62.92
2022-09-18T11:28:02.297Z,63.06
2022-09-18T11:30:44.818Z,62.60
2022-09-18T11:33:28.402Z,62.04
2022-09-18T11:36:10.758Z,62.19
2022-09-18T11:38:46.567Z,62.01
2022-09-18T11:41:28.414Z,62.07
2022-09-18T11:44:07.364Z,62.00
2022-09-18T11:46:55.948Z,61.52
2022-09-18T11:49:34.173Z,61.47
2022-09-18T11:52:14.262Z,60.80
2022-09-18T11:54:56.256Z,61.06
2022-09-18T11:57:37.354Z,61.27
2022-09-18T12:00:19.113Z,61.61
2022-09-18T12:03:08.699Z,61.36
2022-09-18T12:05:54.625Z,61.23
2022-09-18T12:08:43.539Z,60.80
2022-09-18T12:11:27.323Z,60.72
2022-09-18T12:14:10.353Z,60.83
2022-09-18T12:16:52.389Z,60.71
2022-09-18T12:19:36.510Z,61.06
2022-09-18T12:22:15.589Z,61.08
2022-09-18T12:24:50.521Z,60.83
2022-09-18T12:27:38.439Z,60.82
2022-09-18T12:30:17.082Z,60.65
2022-09-18T12:33:24.471Z,60.63
2022-09-18T12:36:21.860Z,60.73
2022-09-18T12:39:25.296Z,60.53
2022-09-18T12:42:12.674Z,60.07
2022-09-18T12:45:07.845Z,60.13
2022-09-18T12:47:55.331Z,60.38
2022-09-18T12:50:47.413Z,60.45
2022-09-18T12:53:37.010Z,60.40
2022-09-18T12:56:26.233Z,60.61
2022-09-18T12:59:34.472Z,60.67
2022-09-18T13:02:24.596Z,60.16
2022-09-18T13:05:07.137Z,59.74
2022-09-18T13:07:40.914Z,59.75
2022-09-18T13:10:20.948Z,59.53
2022-09-18T13:13:01.713Z,59.71
2022-09-18T13:15:41.399Z,59.88
2022-09-18T13:18:29.276Z,60.05
2022-09-18T13:21:06.470Z,60.13
2022-09-18T13:23:47.174Z,60.27
2022-09-18T13:26:34.909Z,60.32
2022-09-18T13:29:22.922Z,59.96
2022-09-18T13:31:57.874Z,60.06
2022-09-18T13:34:58.821Z,60.44
2022-09-18T13:37:33.061Z,60.46
2022-09-18T13:40:27.571Z,60.73
2022-09-18T13:43:19.911Z,60.45
2022-09-18T13:45:53.522Z,60.64
2022-09-18T13:48:32.487Z,60.48
2022-09-18T13:51:09.998Z,60.44
2022-09-18T13:53:45.680Z,60.32
2022-09-18T13:56:54.967Z,60.34
2022-09-18T13:59:48.469Z,60.34
2022-09-18T14:02:38.494Z,60.52
2022-09-18T14:05:33.341Z,60.74
2022-09-18T14:08:37.524Z,60.68
2022-09-18T14:11:16.226Z,60.92
2022-09-18T14:13:56.197Z,61.08
2022-09-18T14:16:41.741Z,61.01
2022-09-18T14:19:37.603Z,61.05
2022-09-18T14:22:27.383Z,60.95
2022-09-18T14:25:06.854Z,60.78
2022-09-18T14:27:50.283Z,60.84
2022-09-18T14:30:29.482Z,61.25
2022-09-18T14:33:23.589Z,61.16
2022-09-18T14:36:12.865Z,61.30
2022-09-18T14:38:53.354Z,61.52
2022-09-18T14:41:38.810Z,61.69
2022-09-18T14:44:19.100Z,61.91
2022-09-18T14:47:00.307Z,62.06
2022-09-18T14:49:37.504Z,62.23
2022-09-18T14:52:24.057Z,62.46
2022-09-18T14:54:59.964Z,62.56
2022-09-18T14:57:41.125Z,62.67
2022-09-18T15:00:22.526Z,62.77
2022-09-18T15:03:00.667Z,63.07
2022-09-18T15:05:35.168Z,63.13
2022-09-18T15:08:21.682Z,63.21
2022-09-18T15:11:01.065Z,63.25
2022-09-18T15:13:39.348Z,63.37
2022-09-18T15:16:22.045Z,63.52
2022-09-18T15:18:56.071Z,63.61
2022-09-18T15:21:33.473Z,63.50
2022-09-18T15:24:16.391Z,63.57
2022-09-18T15:26:56.386Z,63.55
2022-09-18T15:29:33.519Z,63.69
2022-09-18T15:32:08.687Z,63.81
2022-09-18T15:34:48.221Z,63.73
2022-09-18T15:37:25.744Z,63.67
2022-09-18T15:40:09.634Z,63.75
2022-09-18T15:42:53.534Z,63.93
2022-09-18T15:45:29.013Z,64.07
2022-09-18T15:48:04.180Z,64.08
2022-09-18T15:50:43.476Z,64.01
2022-09-18T15:53:33.275Z,64.24
2022-09-18T15:56:21.259Z,64.26
2022-09-18T15:58:59.760Z,64.43
2022-09-18T16:01:37.490Z,64.51
2022-09-18T16:04:25.350Z,64.53
2022-09-18T16:07:02.056Z,64.52
2022-09-18T16:09:42.401Z,64.50
2022-09-18T16:12:38.936Z,64.50
2022-09-18T16:15:31.790Z,64.57
2022-09-18T16:18:27.615Z,64.69
2022-09-18T16:21:05.996Z,64.86
2022-09-18T16:23:51.090Z,64.68
2022-09-18T16:26:31.462Z,64.85
2022-09-18T16:29:07.896Z,64.82
2022-09-18T16:31:41.413Z,64.76
2022-09-18T16:34:24.262Z,64.80
2022-09-18T16:36:58.159Z,64.78
2022-09-18T16:39:31.919Z,64.96
2022-09-18T16:42:15.464Z,64.85
2022-09-18T16:44:48.884Z,64.82
2022-09-18T16:47:22.480Z,64.95
2022-09-18T16:49:55.851Z,65.00
2022-09-18T16:52:29.965Z,64.99
2022-09-18T16:55:04.897Z,65.00
2022-09-18T16:57:39.083Z,65.12
2022-09-18T17:00:16.512Z,65.19
2022-09-18T17:02:50.856Z,65.25
2022-09-18T17:05:26.416Z,65.26
2022-09-18T17:08:02.098Z,65.16
2022-09-18T17:10:37.062Z,65.26
2022-09-18T17:13:10.663Z,65.35
2022-09-18T17:15:52.281Z,65.27
2022-09-18T17:18:28.430Z,65.35
2022-09-18T17:21:06.117Z,65.40
2022-09-18T17:23:40.505Z,65.35
2022-09-18T17:26:16.780Z,65.45
2022-09-18T17:28:50.773Z,65.46
2022-09-18T17:31:27.454Z,65.38
2022-09-18T17:34:02.507Z,65.48
2022-09-18T17:36:37.583Z,65.57
2022-09-18T17:39:14.393Z,65.64
2022-09-18T17:41:48.047Z,65.85
2022-09-18T17:44:22.533Z,65.93
2022-09-18T17:46:59.549Z,65.86
2022-09-18T17:49:35.605Z,66.17
2022-09-18T17:52:13.664Z,66.15
2022-09-18T17:54:51.029Z,66.17
2022-09-18T17:57:26.029Z,66.31
2022-09-18T18:00:05.795Z,66.22
2022-09-18T18:02:48.497Z,66.30
2022-09-18T18:05:34.695Z,66.36
2022-09-18T18:08:11.749Z,66.33
2022-09-18T18:10:45.373Z,66.07
2022-09-18T18:13:21.556Z,66.15
2022-09-18T18:16:05.934Z,66.02
2022-09-18T18:18:41.898Z,66.15
2022-09-18T18:21:19.108Z,66.10
2022-09-18T18:24:02.309Z,66.11
2022-09-18T18:26:36.843Z,66.28
2022-09-18T18:29:21.950Z,66.21
2022-09-18T18:32:00.991Z,66.25
2022-09-18T18:34:35.577Z,66.19
2022-09-18T18:37:14.106Z,66.29
2022-09-18T18:39:51.566Z,66.20
2022-09-18T18:42:29.305Z,66.30
2022-09-18T18:45:19.794Z,66.30
2022-09-18T18:47:54.554Z,66.45
2022-09-18T18:50:33.691Z,66.60
2022-09-18T18:53:08.993Z,66.61
2022-09-18T18:55:45.576Z,66.77
2022-09-18T18:58:25.927Z,67.05
2022-09-18T19:01:06.740Z,67.05
2022-09-18T19:03:43.696Z,67.24
2022-09-18T19:06:18.209Z,67.36
2022-09-18T19:09:01.132Z,67.39
2022-09-18T19:11:49.344Z,67.55
2022-09-18T19:14:29.840Z,67.71
2022-09-18T19:17:03.995Z,67.77
2022-09-18T19:19:40.351Z,67.86
2022-09-18T19:22:19.910Z,68.00
2022-09-18T19:24:56.295Z,68.05
2022-09-18T19:27:30.899Z,68.18
2022-09-18T19:30:05.211Z,68.14
2022-09-18T19:32:38.923Z,68.22
2022-09-18T19:35:13.565Z,68.29
2022-09-18T19:37:48.467Z,68.51
2022-09-18T19:40:32.301Z,68.70
2022-09-18T19:43:12.766Z,68.79
2022-09-18T19:45:48.705Z,69.11
2022-09-18T19:48:26.691Z,69.02
2022-09-18T19:51:05.622Z,68.95
2022-09-18T19:53:43.682Z,69.18
2022-09-18T19:56:41.621Z,69.21
2022-09-18T19:59:18.551Z,69.21
2022-09-18T20:01:52.200Z,69.43
2022-09-18T20:04:26.714Z,69.44
2022-09-18T20:07:00.565Z,69.33
2022-09-18T20:09:40.492Z,69.40
2022-09-18T20:12:14.473Z,69.34
2022-09-18T20:14:48.679Z,69.37
2022-09-18T20:17:22.674Z,69.12
2022-09-18T20:20:18.058Z,69.11
2022-09-18T20:22:53.757Z,68.96
2022-09-18T20:25:28.295Z,68.81
2022-09-18T20:28:02.483Z,68.83
2022-09-18T20:30:36.302Z,68.84
2022-09-18T20:33:10.413Z,68.90
2022-09-18T20:35:45.781Z,68.98
2022-09-18T20:38:19.481Z,69.07
2022-09-18T20:41:06.831Z,69.15
2022-09-18T20:43:41.272Z,69.22
2022-09-18T20:46:17.604Z,69.30
2022-09-18T20:48:55.607Z,69.40
2022-09-18T20:51:35.022Z,69.47
2022-09-18T20:54:09.379Z,69.67
2022-09-18T20:56:45.020Z,69.78
2022-09-18T20:59:19.843Z,69.91
2022-09-18T21:01:56.724Z,70.11
2022-09-18T21:04:34.697Z,69.95
2022-09-18T21:07:08.080Z,69.91
2022-09-18T21:09:41.546Z,70.14
2022-09-18T21:12:15.117Z,70.25
2022-09-18T21:14:49.257Z,70.23
2022-09-18T21:17:22.937Z,70.42
2022-09-18T21:19:57.933Z,70.47
2022-09-18T21:23:09.876Z,70.69
2022-09-18T21:25:43.826Z,70.65
2022-09-18T21:28:17.406Z,70.83
2022-09-18T21:30:50.867Z,70.92
2022-09-18T21:33:24.312Z,71.01
2022-09-18T21:35:57.671Z,71.15
2022-09-18T21:38:32.096Z,71.27
2022-09-18T21:41:16.546Z,71.33
2022-09-18T21:43:50.992Z,71.40
2022-09-18T21:46:25.689Z,71.47
2022-09-18T21:48:59.157Z,71.52
2022-09-18T21:51:35.695Z,71.45
2022-09-18T21:54:11.660Z,71.55
2022-09-18T21:56:49.300Z,71.55
2022-09-18T21:59:27.511Z,71.47
2022-09-18T22:02:05.064Z,71.45
2022-09-18T22:04:42.209Z,71.39
2022-09-18T22:07:18.390Z,71.46
2022-09-18T22:09:55.418Z,71.38
2022-09-18T22:12:33.141Z,71.47
2022-09-18T22:15:11.362Z,71.39
2022-09-18T22:17:44.781Z,71.42
2022-09-18T22:20:38.527Z,71.55
2022-09-18T22:23:12.450Z,71.41
2022-09-18T22:25:46.174Z,71.37
2022-09-18T22:28:20.339Z,71.44
2022-09-18T22:30:54.259Z,71.37
2022-09-18T22:33:27.818Z,71.42
2022-09-18T22:36:06.275Z,71.18
2022-09-18T22:38:39.338Z,71.34
2022-09-18T22:41:13.632Z,71.02
2022-09-18T22:43:47.629Z,70.97
2022-09-18T22:46:21.465Z,70.46
2022-09-18T22:48:55.153Z,70.28
2022-09-18T22:51:29.479Z,70.21
2022-09-18T22:54:05.046Z,69.91
2022-09-18T22:56:41.438Z,69.89
2022-09-18T22:59:16.126Z,69.66
2022-09-18T23:01:52.875Z,69.53
2022-09-18T23:04:29.459Z,69.41
2022-09-18T23:07:03.679Z,69.27
2022-09-18T23:09:37.128Z,69.26
2022-09-18T23:12:11.357Z,69.06
2022-09-18T23:14:44.922Z,68.92
2022-09-18T23:17:18.880Z,68.84
2022-09-18T23:19:55.918Z,68.81
2022-09-18T23:22:29.548Z,68.76
2022-09-18T23:25:03.022Z,68.48
2022-09-18T23:27:36.613Z,68.35
2022-09-18T23:30:12.298Z,68.42
2022-09-18T23:32:48.883Z,68.35
2022-09-18T23:35:22.849Z,68.39
2022-09-18T23:37:56.781Z,68.21
2022-09-18T23:40:30.940Z,68.40
2022-09-18T23:43:04.356Z,68.38
2022-09-18T23:45:38.082Z,68.27
2022-09-18T23:48:11.512Z,68.31
2022-09-18T23:50:44.726Z,68.16
2022-09-18T23:53:18.741Z,68.37
2022-09-18T23:55:53.109Z,68.26
2022-09-18T23:58:26.629Z,68.07
